createdAt,value
2022-12-13T00:01:34.367Z,74.63
2022-12-13T00:04:05.070Z,74.21
2022-12-13T00:06:34.311Z,74.33
2022-12-13T00:09:02.848Z,74.81
2022-12-13T00:11:30.717Z,74.73
2022-12-13T00:13:59.276Z,74.16
2022-12-13T00:16:28.449Z,74.36
2022-12-13T00:18:59.484Z,74.44
2022-12-13T00:21:30.966Z,74.59
2022-12-13T00:24:00.107Z,74.87
2022-12-13T00:26:30.175Z,74.55
2022-12-13T00:29:00.597Z,74.71
2022-12-13T00:34:22.504Z,74.23
2022-12-13T00:36:50.779Z,74.42
2022-12-13T00:39:19.347Z,73.86
2022-12-13T00:41:47.735Z,74.66
2022-12-13T00:44:15.980Z,73.94
2022-12-13T00:46:44.236Z,74.20
2022-12-13T00:49:13.424Z,74.40
2022-12-13T00:51:42.662Z,74.55
2022-12-13T00:54:11.497Z,74.17
2022-12-13T00:56:39.685Z,74.10
2022-12-13T00:59:07.537Z,74.19
2022-12-13T01:01:37.540Z,74.24
2022-12-13T01:04:06.809Z,74.20
2022-12-13T01:06:37.770Z,74.42
2022-12-13T01:09:12.356Z,74.62
2022-12-13T01:11:40.276Z,74.64
2022-12-13T01:14:08.150Z,74.74
2022-12-13T01:16:36.180Z,74.62
2022-12-13T01:19:04.350Z,74.76
2022-12-13T01:21:32.216Z,74.46
2022-12-13T01:24:04.363Z,74.40
2022-12-13T01:26:34.965Z,74.48
2022-12-13T01:29:05.285Z,74.57
2022-12-13T01:31:33.560Z,74.57
2022-12-13T01:34:10.668Z,74.98
2022-12-13T01:36:39.227Z,74.55
2022-12-13T01:39:14.397Z,74.71
2022-12-13T01:41:45.552Z,75.13
2022-12-13T01:44:50.739Z,74.71
2022-12-13T01:47:23.775Z,74.53
2022-12-13T01:49:53.158Z,74.10
2022-12-13T01:52:22.610Z,74.13
2022-12-13T01:54:54.182Z,74.47
2022-12-13T01:57:24.441Z,74.61
2022-12-13T01:59:53.722Z,74.77
2022-12-13T02:02:22.073Z,75.44
2022-12-13T02:04:54.371Z,75.26
2022-12-13T02:07:27.566Z,75.41
2022-12-13T02:09:58.757Z,75.08
2022-12-13T02:12:31.256Z,75.43
2022-12-13T02:15:01.622Z,74.94
2022-12-13T02:17:44.499Z,75.35
2022-12-13T02:20:44.287Z,75.31
2022-12-13T02:23:57.826Z,74.93
2022-12-13T02:26:44.160Z,75.69
2022-12-13T02:29:41.158Z,74.89
2022-12-13T02:32:17.348Z,75.47
2022-12-13T02:34:51.545Z,75.33
2022-12-13T02:37:26.315Z,75.03
2022-12-13T02:40:01.730Z,75.28
2022-12-13T02:42:34.902Z,75.20
2022-12-13T02:45:08.352Z,75.67
2022-12-13T02:47:41.532Z,75.73
2022-12-13T02:50:14.948Z,75.57
2022-12-13T02:52:46.625Z,75.55
2022-12-13T02:55:17.709Z,75.28
2022-12-13T02:57:48.704Z,75.85
2022-12-13T03:00:19.157Z,76.25
2022-12-13T03:03:01.910Z,75.73
2022-12-13T03:05:57.772Z,76.03
2022-12-13T03:08:30.590Z,75.39
2022-12-13T03:11:05.919Z,75.24
2022-12-13T03:13:41.987Z,75.90
2022-12-13T03:16:15.910Z,76.19
2022-12-13T03:18:54.006Z,75.28
2022-12-13T03:21:23.176Z,75.11
2022-12-13T03:23:51.022Z,74.89
2022-12-13T03:26:22.488Z,75.28
2022-12-13T03:28:50.610Z,75.20
2022-12-13T03:31:18.741Z,75.43
2022-12-13T03:33:47.059Z,75.85
2022-12-13T03:36:18.780Z,75.60
2022-12-13T03:38:47.017Z,75.43
2022-12-13T03:41:17.964Z,75.46
2022-12-13T03:43:46.323Z,75.23
2022-12-13T03:46:14.229Z,75.14
2022-12-13T03:48:42.096Z,75.37
2022-12-13T03:51:09.924Z,75.09
2022-12-13T03:53:39.084Z,74.95
2022-12-13T03:56:07.378Z,74.79
2022-12-13T03:58:37.900Z,75.18
2022-12-13T04:01:07.713Z,75.27
2022-12-13T04:03:35.865Z,74.73
2022-12-13T04:06:04.635Z,74.40
2022-12-13T04:08:33.219Z,74.80
2022-12-13T04:11:23.651Z,74.92
2022-12-13T04:13:50.908Z,75.38
2022-12-13T04:16:18.848Z,75.07
2022-12-13T04:18:46.857Z,74.80
2022-12-13T04:21:14.970Z,74.90
2022-12-13T04:23:42.799Z,74.35
2022-12-13T04:26:12.053Z,73.93
2022-12-13T04:28:39.984Z,73.75
2022-12-13T04:31:07.960Z,74.19
2022-12-13T04:33:35.852Z,73.81
2022-12-13T04:36:04.195Z,73.46
2022-12-13T04:38:32.073Z,73.66
2022-12-13T04:41:14.225Z,73.67
2022-12-13T04:43:43.466Z,73.88
2022-12-13T04:46:12.742Z,74.25
2022-12-13T04:48:40.731Z,74.06
2022-12-13T04:51:08.656Z,73.49
2022-12-13T04:53:36.506Z,73.92
2022-12-13T04:56:05.477Z,73.61
2022-12-13T04:58:33.343Z,73.30
2022-12-13T05:01:02.965Z,73.62
2022-12-13T05:03:30.893Z,73.27
2022-12-13T05:05:58.699Z,73.06
2022-12-13T05:08:26.569Z,73.31
2022-12-13T05:10:55.563Z,72.57
2022-12-13T05:13:23.342Z,73.06
2022-12-13T05:15:56.085Z,73.09
2022-12-13T05:18:25.782Z,72.70
2022-12-13T05:20:54.396Z,72.30
2022-12-13T05:23:25.013Z,72.62
2022-12-13T05:25:53.165Z,73.35
2022-12-13T05:28:27.572Z,72.81
2022-12-13T05:30:57.554Z,73.15
2022-12-13T05:33:27.211Z,72.94
2022-12-13T05:36:00.507Z,73.09
2022-12-13T05:38:32.310Z,72.79
2022-12-13T05:41:00.944Z,72.55
2022-12-13T05:43:42.077Z,73.04
2022-12-13T05:46:10.684Z,72.87
2022-12-13T05:48:40.075Z,72.62
2022-12-13T05:51:09.794Z,72.77
2022-12-13T05:53:40.006Z,72.79
2022-12-13T05:56:10.198Z,72.66
2022-12-13T05:58:38.993Z,72.65
2022-12-13T06:01:08.730Z,72.43
2022-12-13T06:03:36.937Z,72.67
2022-12-13T06:06:08.591Z,73.18
2022-12-13T06:08:37.249Z,72.66
2022-12-13T06:11:10.662Z,73.35
2022-12-13T06:13:43.246Z,73.25
2022-12-13T06:16:21.921Z,73.26
2022-12-13T06:18:55.757Z,72.94
2022-12-13T06:21:40.715Z,72.92
2022-12-13T06:24:11.811Z,73.05
2022-12-13T06:26:39.560Z,72.89
2022-12-13T06:29:07.612Z,72.91
2022-12-13T06:31:35.503Z,72.83
2022-12-13T06:34:14.835Z,72.51
2022-12-13T06:36:44.691Z,72.79
2022-12-13T06:39:12.559Z,72.33
2022-12-13T06:41:40.472Z,72.17
2022-12-13T06:44:08.917Z,72.55
2022-12-13T06:46:37.055Z,72.41
2022-12-13T06:49:08.978Z,72.51
2022-12-13T06:51:36.798Z,72.25
2022-12-13T06:54:06.067Z,72.14
2022-12-13T06:56:33.858Z,72.32
2022-12-13T06:59:02.387Z,72.55
2022-12-13T07:01:37.895Z,72.73
2022-12-13T07:04:29.594Z,72.76
2022-12-13T07:06:54.746Z,72.74
2022-12-13T07:09:24.018Z,72.69
2022-12-13T07:11:52.662Z,72.66
2022-12-13T07:14:21.051Z,72.43
2022-12-13T07:16:48.926Z,72.15
2022-12-13T07:19:23.782Z,72.67
2022-12-13T07:21:52.686Z,72.20
2022-12-13T07:24:20.732Z,72.47
2022-12-13T07:26:49.943Z,72.33
2022-12-13T07:29:22.476Z,72.00
2022-12-13T07:31:50.804Z,71.83
2022-12-13T07:34:18.740Z,72.17
2022-12-13T07:36:46.842Z,71.67
2022-12-13T07:39:14.671Z,71.27
2022-12-13T07:41:42.576Z,71.08
2022-12-13T07:44:11.764Z,71.43
2022-12-13T07:46:39.805Z,71.75
2022-12-13T07:49:07.770Z,71.21
2022-12-13T07:51:36.318Z,71.71
2022-12-13T07:54:06.255Z,71.72
2022-12-13T07:56:34.831Z,71.92
2022-12-13T07:59:02.784Z,71.89
2022-12-13T08:01:34.531Z,72.13
2022-12-13T08:04:03.004Z,72.51
2022-12-13T08:06:31.443Z,72.69
2022-12-13T08:08:59.411Z,72.69
2022-12-13T08:11:27.251Z,72.78
2022-12-13T08:13:55.232Z,72.36
2022-12-13T08:16:26.685Z,72.95
2022-12-13T08:19:02.697Z,73.09
2022-12-13T08:24:24.580Z,73.22
2022-12-13T08:26:55.380Z,73.45
2022-12-13T08:29:33.477Z,73.16
2022-12-13T08:32:04.366Z,73.17
2022-12-13T08:34:33.590Z,73.07
2022-12-13T08:37:03.581Z,72.75
2022-12-13T08:39:34.654Z,72.78
2022-12-13T08:42:15.214Z,72.77
2022-12-13T08:44:47.006Z,72.00
2022-12-13T08:47:23.203Z,71.89
2022-12-13T08:49:54.090Z,70.51
2022-12-13T08:52:23.236Z,68.81
2022-12-13T08:54:51.356Z,68.16
2022-12-13T08:57:19.193Z,65.16
2022-12-13T08:59:47.051Z,64.84
2022-12-13T09:02:15.352Z,64.89
2022-12-13T09:04:43.481Z,65.58
2022-12-13T09:07:12.886Z,65.15
2022-12-13T09:09:40.702Z,64.97
2022-12-13T09:12:10.695Z,64.62
2022-12-13T09:14:45.727Z,64.37
2022-12-13T09:17:24.526Z,64.10
2022-12-13T09:19:58.210Z,64.44
2022-12-13T09:22:33.398Z,63.53
2022-12-13T09:25:03.009Z,63.74
2022-12-13T09:27:39.516Z,63.48
2022-12-13T09:30:12.148Z,63.75
2022-12-13T09:32:40.606Z,63.57
2022-12-13T09:35:09.390Z,63.28
2022-12-13T09:37:44.155Z,62.89
2022-12-13T09:40:25.682Z,62.81
2022-12-13T09:43:13.686Z,62.73
2022-12-13T09:45:46.761Z,62.40
2022-12-13T09:48:22.707Z,62.43
2022-12-13T09:51:15.944Z,62.91
2022-12-13T09:53:42.601Z,62.59
2022-12-13T09:56:13.066Z,62.66
2022-12-13T09:58:40.960Z,62.29
2022-12-13T10:01:08.862Z,62.70
2022-12-13T10:03:36.774Z,62.71
2022-12-13T10:06:22.802Z,62.38
2022-12-13T10:08:58.364Z,62.81
2022-12-13T10:11:31.850Z,62.69
2022-12-13T10:14:03.695Z,62.56
2022-12-13T10:16:43.649Z,62.57
2022-12-13T10:19:29.036Z,62.21
2022-12-13T10:22:02.081Z,62.23
2022-12-13T10:24:49.443Z,61.80
2022-12-13T10:27:19.611Z,62.11
2022-12-13T10:29:59.825Z,61.60
2022-12-13T10:32:27.735Z,61.82
2022-12-13T10:34:56.278Z,61.73
2022-12-13T10:37:31.635Z,61.90
2022-12-13T10:40:00.915Z,61.91
2022-12-13T10:42:33.880Z,62.04
2022-12-13T10:45:23.603Z,61.88
2022-12-13T10:47:52.246Z,61.92
2022-12-13T10:50:26.342Z,61.78
2022-12-13T10:52:55.873Z,61.86
2022-12-13T10:55:30.636Z,62.02
2022-12-13T10:58:02.357Z,62.37
2022-12-13T11:00:38.762Z,61.96
2022-12-13T11:03:08.219Z,61.53
2022-12-13T11:05:38.232Z,61.32
2022-12-13T11:08:17.558Z,61.40
2022-12-13T11:10:47.782Z,61.19
2022-12-13T11:13:26.237Z,61.43
2022-12-13T11:15:57.786Z,61.52
2022-12-13T11:18:28.127Z,61.39
2022-12-13T11:20:58.351Z,61.29
2022-12-13T11:23:30.717Z,61.32
2022-12-13T11:26:05.922Z,61.25
2022-12-13T11:28:57.616Z,61.22
2022-12-13T11:31:32.763Z,60.76
2022-12-13T11:34:10.242Z,61.21
2022-12-13T11:36:48.522Z,60.70
2022-12-13T11:39:22.288Z,60.84
2022-12-13T11:41:56.154Z,61.12
2022-12-13T11:44:30.423Z,61.00
2022-12-13T11:47:01.092Z,60.71
2022-12-13T11:49:39.344Z,60.93
2022-12-13T11:52:16.404Z,60.73
2022-12-13T11:54:51.530Z,60.61
2022-12-13T11:57:33.313Z,60.72
2022-12-13T12:00:13.168Z,60.85
2022-12-13T12:02:48.546Z,60.55
2022-12-13T12:05:26.454Z,60.49
2022-12-13T12:08:43.430Z,60.39
2022-12-13T12:10:50.255Z,60.17
2022-12-13T12:13:25.434Z,60.43
2022-12-13T12:16:01.661Z,60.43
2022-12-13T12:18:29.710Z,60.30
2022-12-13T12:21:07.663Z,60.30
2022-12-13T12:23:52.434Z,60.29
2022-12-13T12:26:27.294Z,60.09
2022-12-13T12:29:21.228Z,60.22
2022-12-13T12:31:54.989Z,60.24
2022-12-13T12:34:34.785Z,59.95
2022-12-13T12:37:12.967Z,60.00
2022-12-13T12:40:02.241Z,59.88
2022-12-13T12:43:13.952Z,59.32
2022-12-13T12:45:59.683Z,59.45
2022-12-13T12:48:56.990Z,58.91
2022-12-13T12:51:34.072Z,59.03
2022-12-13T12:54:20.022Z,59.19
2022-12-13T12:56:56.475Z,58.87
2022-12-13T12:59:34.474Z,58.82
2022-12-13T13:02:12.672Z,58.22
2022-12-13T13:04:47.016Z,57.81
2022-12-13T13:07:22.608Z,57.38
2022-12-13T13:09:55.230Z,57.64
2022-12-13T13:12:30.353Z,57.50
2022-12-13T13:14:59.095Z,57.45
2022-12-13T13:17:48.136Z,57.49
2022-12-13T13:20:26.426Z,56.72
2022-12-13T13:23:17.519Z,56.17
2022-12-13T13:28:44.783Z,56.67
2022-12-13T13:31:12.658Z,55.93
2022-12-13T13:33:47.230Z,56.03
2022-12-13T13:36:47.217Z,56.10
2022-12-13T13:39:17.047Z,56.06
2022-12-13T13:42:09.110Z,55.87
2022-12-13T13:45:03.143Z,55.72
2022-12-13T13:47:42.842Z,55.84
2022-12-13T13:50:41.461Z,56.10
2022-12-13T13:53:46.694Z,55.70
2022-12-13T13:56:36.677Z,56.39
2022-12-13T13:59:24.762Z,55.94
2022-12-13T14:02:06.387Z,56.27
2022-12-13T14:05:16.921Z,56.08
2022-12-13T14:08:29.552Z,56.41
2022-12-13T14:11:22.151Z,56.36
2022-12-13T14:14:27.031Z,55.87
2022-12-13T14:17:32.810Z,56.22
2022-12-13T14:20:39.528Z,56.23
2022-12-13T14:23:13.739Z,56.62
2022-12-13T14:26:07.169Z,56.59
2022-12-13T14:28:46.130Z,56.48
2022-12-13T14:31:21.618Z,57.25
2022-12-13T14:33:52.123Z,57.59
2022-12-13T14:36:28.650Z,57.46
2022-12-13T14:39:03.498Z,57.76
2022-12-13T14:41:32.799Z,57.87
2022-12-13T14:44:16.434Z,58.19
2022-12-13T14:46:55.676Z,58.10
2022-12-13T14:49:25.999Z,58.48
2022-12-13T14:52:01.453Z,58.73
2022-12-13T14:54:46.038Z,59.48
2022-12-13T14:57:20.553Z,59.87
2022-12-13T14:59:50.725Z,59.90
2022-12-13T15:02:30.477Z,60.08
2022-12-13T15:05:02.079Z,60.54
2022-12-13T15:07:33.836Z,60.72
2022-12-13T15:10:04.713Z,61.44
2022-12-13T15:12:34.150Z,61.75
2022-12-13T15:15:04.127Z,61.84
2022-12-13T15:17:35.809Z,61.86
2022-12-13T15:20:25.386Z,62.51
2022-12-13T15:23:01.988Z,62.59
2022-12-13T15:25:40.563Z,62.71
2022-12-13T15:28:18.196Z,62.65
2022-12-13T15:30:49.859Z,62.85
2022-12-13T15:33:20.739Z,63.03
2022-12-13T15:35:49.677Z,63.33
2022-12-13T15:38:29.071Z,64.02
2022-12-13T15:40:57.471Z,63.77
2022-12-13T15:43:36.335Z,64.37
2022-12-13T15:46:12.628Z,64.02
2022-12-13T15:48:48.313Z,64.54
2022-12-13T15:51:30.347Z,64.44
2022-12-13T15:54:05.177Z,64.23
2022-12-13T15:56:36.472Z,64.42
2022-12-13T15:59:26.446Z,64.74
2022-12-13T16:01:58.655Z,64.51
2022-12-13T16:04:29.286Z,65.18
2022-12-13T16:07:03.228Z,65.01
2022-12-13T16:09:38.145Z,65.59
2022-12-13T16:12:07.995Z,65.88
2022-12-13T16:14:49.255Z,65.10
2022-12-13T16:17:24.587Z,65.50
2022-12-13T16:19:53.558Z,65.66
2022-12-13T16:22:23.993Z,65.62
2022-12-13T16:24:53.060Z,65.34
2022-12-13T16:27:21.546Z,65.82
2022-12-13T16:29:50.867Z,65.76
2022-12-13T16:32:18.858Z,66.02
2022-12-13T16:34:46.791Z,65.54
2022-12-13T16:37:26.478Z,65.91
2022-12-13T16:39:56.628Z,66.27
2022-12-13T16:42:26.149Z,66.23
2022-12-13T16:45:32.303Z,66.02
2022-12-13T16:47:49.316Z,65.71
2022-12-13T16:50:20.125Z,65.73
2022-12-13T16:52:48.173Z,66.41
2022-12-13T16:55:16.818Z,66.02
2022-12-13T16:57:56.419Z,66.15
2022-12-13T17:00:26.779Z,66.49
2022-12-13T17:02:54.946Z,66.69
2022-12-13T17:05:23.656Z,67.10
2022-12-13T17:07:51.531Z,66.72
2022-12-13T17:10:20.259Z,66.35
2022-12-13T17:12:48.127Z,66.37
2022-12-13T17:15:17.098Z,66.45
2022-12-13T17:17:47.710Z,66.55
2022-12-13T17:20:17.256Z,66.73
2022-12-13T17:22:46.538Z,67.01
2022-12-13T17:25:14.965Z,66.61
2022-12-13T17:27:43.098Z,66.43
2022-12-13T17:30:15.486Z,66.71
2022-12-13T17:32:43.491Z,66.78
2022-12-13T17:35:17.888Z,67.26
2022-12-13T17:37:46.603Z,66.89
2022-12-13T17:40:14.439Z,66.94
2022-12-13T17:42:42.405Z,67.77
2022-12-13T17:45:11.076Z,67.50
2022-12-13T17:47:39.698Z,67.33
2022-12-13T17:50:08.920Z,67.42
2022-12-13T17:52:39.099Z,67.13
2022-12-13T17:55:07.511Z,66.72
2022-12-13T17:57:35.823Z,66.67
2022-12-13T18:00:04.914Z,66.81
2022-12-13T18:02:40.741Z,67.53
2022-12-13T18:05:17.628Z,66.89
2022-12-13T18:07:50.638Z,67.42
2022-12-13T18:10:19.051Z,67.67
2022-12-13T18:12:46.835Z,66.66
2022-12-13T18:15:14.939Z,67.53
2022-12-13T18:18:10.055Z,67.70
2022-12-13T18:20:30.917Z,68.16
2022-12-13T18:23:00.087Z,67.69
2022-12-13T18:25:28.139Z,67.48
2022-12-13T18:28:00.676Z,68.21
2022-12-13T18:30:31.058Z,68.52
2022-12-13T18:32:58.894Z,69.08
2022-12-13T18:35:26.808Z,69.93
2022-12-13T18:37:54.605Z,69.67
2022-12-13T18:40:23.849Z,68.63
2022-12-13T18:42:52.116Z,68.40
2022-12-13T18:45:20.493Z,69.34
2022-12-13T18:47:48.996Z,69.52
2022-12-13T18:50:16.964Z,69.92
2022-12-13T18:52:44.879Z,70.00
2022-12-13T18:55:13.191Z,70.36
2022-12-13T18:57:42.855Z,69.81
2022-12-13T19:00:12.801Z,69.71
2022-12-13T19:02:41.676Z,69.59
2022-12-13T19:05:10.509Z,69.61
2022-12-13T19:07:38.394Z,68.98
2022-12-13T19:10:06.820Z,69.44
2022-12-13T19:12:34.997Z,70.06
2022-12-13T19:15:06.092Z,69.65
2022-12-13T19:17:34.461Z,69.70
2022-12-13T19:20:02.626Z,69.74
2022-12-13T19:22:30.800Z,70.33
2022-12-13T19:24:58.896Z,69.62
2022-12-13T19:27:26.808Z,69.59
2022-12-13T19:29:54.731Z,69.55
2022-12-13T19:32:23.956Z,69.65
2022-12-13T19:34:51.837Z,68.95
2022-12-13T19:37:19.660Z,68.66
2022-12-13T19:39:47.436Z,69.09
2022-12-13T19:42:15.382Z,69.08
2022-12-13T19:44:43.157Z,68.66
2022-12-13T19:47:11.047Z,69.20
2022-12-13T19:49:41.441Z,68.87
2022-12-13T19:52:09.328Z,69.03
2022-12-13T19:54:37.206Z,68.52
2022-12-13T19:57:07.366Z,68.07
2022-12-13T19:59:35.564Z,68.65
2022-12-13T20:02:05.522Z,69.26
2022-12-13T20:04:33.551Z,68.91
2022-12-13T20:07:03.361Z,69.43
2022-12-13T20:09:31.285Z,68.85
2022-12-13T20:11:59.106Z,68.43
2022-12-13T20:14:27.368Z,68.79
2022-12-13T20:16:55.338Z,69.38
2022-12-13T20:19:24.012Z,68.69
2022-12-13T20:21:56.698Z,69.72
2022-12-13T20:24:26.410Z,69.62
2022-12-13T20:26:54.301Z,69.37
2022-12-13T20:29:22.951Z,69.38
2022-12-13T20:31:51.587Z,68.84
2022-12-13T20:34:21.025Z,68.53
2022-12-13T20:36:49.282Z,68.71
2022-12-13T20:39:17.113Z,68.54
2022-12-13T20:41:46.303Z,68.14
2022-12-13T20:44:14.607Z,68.88
2022-12-13T20:46:42.559Z,68.82
2022-12-13T20:49:11.396Z,69.23
2022-12-13T20:51:41.519Z,69.40
2022-12-13T20:54:09.769Z,68.80
2022-12-13T20:56:39.682Z,69.05
2022-12-13T20:59:11.562Z,68.59
2022-12-13T21:01:40.633Z,68.38
2022-12-13T21:04:10.420Z,69.36
2022-12-13T21:06:40.702Z,69.35
2022-12-13T21:09:10.018Z,69.16
2022-12-13T21:11:40.668Z,69.21
2022-12-13T21:14:18.782Z,69.47
2022-12-13T21:16:50.323Z,70.50
2022-12-13T21:19:21.531Z,69.90
2022-12-13T21:21:50.796Z,70.38
2022-12-13T21:24:20.210Z,69.78
2022-12-13T21:26:48.432Z,69.80
2022-12-13T21:29:17.862Z,70.22
2022-12-13T21:31:51.472Z,70.30
2022-12-13T21:34:20.084Z,70.61
2022-12-13T21:36:50.421Z,71.02
2022-12-13T21:39:20.005Z,70.55
2022-12-13T21:41:48.459Z,70.91
2022-12-13T21:44:18.910Z,70.77
2022-12-13T21:47:11.191Z,71.58
2022-12-13T21:49:35.096Z,71.69
2022-12-13T21:52:03.046Z,70.73
2022-12-13T21:54:30.824Z,71.33
2022-12-13T21:57:16.314Z,71.46
2022-12-13T21:59:45.576Z,71.62
2022-12-13T22:02:16.365Z,71.16
2022-12-13T22:04:46.255Z,70.45
2022-12-13T22:07:16.159Z,71.18
2022-12-13T22:09:45.162Z,71.07
2022-12-13T22:12:21.080Z,70.69
2022-12-13T22:14:51.281Z,70.23
2022-12-13T22:17:28.256Z,70.37
2022-12-13T22:19:59.454Z,70.29
2022-12-13T22:22:27.573Z,69.91
2022-12-13T22:24:55.389Z,69.83
2022-12-13T22:27:25.437Z,69.32
2022-12-13T22:29:56.854Z,69.60
2022-12-13T22:32:26.978Z,69.62
2022-12-13T22:34:55.162Z,69.61
2022-12-13T22:37:23.070Z,69.80
2022-12-13T22:39:51.159Z,69.35
2022-12-13T22:42:20.066Z,69.69
2022-12-13T22:44:48.182Z,69.38
2022-12-13T22:47:17.474Z,69.05
2022-12-13T22:49:48.828Z,69.56
2022-12-13T22:52:17.223Z,68.95
2022-12-13T22:54:45.068Z,68.60
2022-12-13T22:57:12.992Z,68.34
2022-12-13T22:59:41.166Z,68.74
2022-12-13T23:02:09.979Z,68.46
2022-12-13T23:04:39.397Z,68.84
2022-12-13T23:07:07.283Z,68.30
2022-12-13T23:09:35.132Z,69.05
2022-12-13T23:12:20.559Z,68.90
2022-12-13T23:14:48.367Z,68.82
2022-12-13T23:17:16.126Z,69.40
2022-12-13T23:19:50.078Z,69.39
2022-12-13T23:22:19.882Z,69.06
2022-12-13T23:24:47.717Z,69.60
2022-12-13T23:27:15.817Z,69.84
2022-12-13T23:29:43.652Z,69.64
2022-12-13T23:32:11.645Z,69.60
2022-12-13T23:34:39.435Z,69.53
2022-12-13T23:37:08.670Z,69.79
2022-12-13T23:39:36.459Z,70.24
2022-12-13T23:42:04.498Z,70.03
2022-12-13T23:44:32.275Z,69.60
2022-12-13T23:47:00.096Z,69.55
2022-12-13T23:49:28.040Z,69.74
2022-12-13T23:51:56.016Z,70.36
2022-12-13T23:54:25.202Z,70.04
2022-12-13T23:56:53.010Z,70.63
2022-12-13T23:59:20.902Z,70.64
